createdAt,value
2022-12-22T00:00:40.989Z,999.04
2022-12-22T00:01:46.547Z,999.07
2022-12-22T00:02:41.194Z,999.11
2022-12-22T00:03:41.160Z,999.09
2022-12-22T00:04:40.973Z,999.01
2022-12-22T00:05:40.933Z,999.06
2022-12-22T00:06:40.913Z,999.07
2022-12-22T00:07:40.935Z,999.02
2022-12-22T00:08:40.909Z,999.00
2022-12-22T00:09:40.911Z,998.97
2022-12-22T00:10:40.876Z,999.01
2022-12-22T00:11:48.394Z,998.96
2022-12-22T00:12:40.879Z,998.98
2022-12-22T00:13:40.876Z,998.97
2022-12-22T00:14:40.877Z,998.96
2022-12-22T00:15:40.824Z,998.91
2022-12-22T00:16:40.915Z,998.83
2022-12-22T00:17:40.809Z,998.81
2022-12-22T00:18:40.884Z,998.81
2022-12-22T00:19:40.789Z,998.79
2022-12-22T00:20:40.766Z,998.80
2022-12-22T00:21:40.765Z,998.75
2022-12-22T00:22:40.761Z,998.73
2022-12-22T00:23:40.728Z,998.73
2022-12-22T00:24:40.739Z,998.71
2022-12-22T00:25:40.706Z,998.74
2022-12-22T00:26:40.697Z,998.70
2022-12-22T00:27:45.460Z,998.69
2022-12-22T00:28:40.683Z,998.69
2022-12-22T00:29:40.658Z,998.70
2022-12-22T00:30:40.736Z,998.66
2022-12-22T00:31:47.150Z,998.64
2022-12-22T00:32:40.635Z,998.63
2022-12-22T00:33:40.633Z,998.64
2022-12-22T00:34:40.666Z,998.59
2022-12-22T00:35:40.605Z,998.60
2022-12-22T00:36:40.640Z,998.60
2022-12-22T00:37:40.602Z,998.55
2022-12-22T00:38:40.626Z,998.51
2022-12-22T00:39:40.565Z,998.55
2022-12-22T00:40:40.567Z,998.51
2022-12-22T00:41:40.535Z,998.55
2022-12-22T00:42:40.543Z,998.53
2022-12-22T00:43:40.533Z,998.54
2022-12-22T00:44:40.518Z,998.49
2022-12-22T00:45:40.547Z,998.50
2022-12-22T00:46:40.507Z,998.42
2022-12-22T00:47:40.456Z,998.45
2022-12-22T00:48:40.457Z,998.40
2022-12-22T00:49:40.537Z,998.45
2022-12-22T00:50:40.452Z,998.36
2022-12-22T00:51:40.460Z,998.39
2022-12-22T00:52:40.426Z,998.36
2022-12-22T00:53:40.388Z,998.37
2022-12-22T00:54:40.398Z,998.38
2022-12-22T00:55:40.368Z,998.31
2022-12-22T00:56:40.364Z,998.31
2022-12-22T00:57:40.371Z,998.31
2022-12-22T00:58:40.344Z,998.24
2022-12-22T00:59:40.353Z,998.26
2022-12-22T01:00:40.346Z,998.26
2022-12-22T01:01:46.941Z,998.25
2022-12-22T01:02:40.533Z,998.17
2022-12-22T01:03:40.305Z,998.20
2022-12-22T01:04:40.296Z,998.13
2022-12-22T01:05:40.269Z,998.13
2022-12-22T01:06:40.260Z,998.14
2022-12-22T01:07:40.245Z,998.11
2022-12-22T01:08:40.228Z,998.06
2022-12-22T01:09:40.211Z,998.06
2022-12-22T01:10:40.221Z,998.07
2022-12-22T01:11:40.240Z,998.07
2022-12-22T01:12:40.224Z,998.06
2022-12-22T01:13:40.167Z,998.06
2022-12-22T01:14:40.179Z,998.07
2022-12-22T01:15:40.260Z,998.08
2022-12-22T01:16:40.167Z,998.02
2022-12-22T01:17:40.143Z,998.01
2022-12-22T01:18:40.124Z,998.05
2022-12-22T01:19:40.107Z,998.00
2022-12-22T01:20:40.173Z,997.97
2022-12-22T01:21:46.614Z,997.98
2022-12-22T01:22:40.091Z,997.94
2022-12-22T01:23:40.070Z,998.01
2022-12-22T01:24:40.086Z,997.97
2022-12-22T01:25:40.070Z,997.96
2022-12-22T01:26:40.051Z,997.97
2022-12-22T01:27:40.055Z,997.98
2022-12-22T01:28:40.043Z,997.99
2022-12-22T01:29:40.023Z,998.03
2022-12-22T01:30:40.058Z,997.99
2022-12-22T01:31:39.980Z,997.96
2022-12-22T01:32:40.008Z,997.92
2022-12-22T01:33:39.982Z,997.90
2022-12-22T01:34:39.940Z,997.88
2022-12-22T01:35:39.948Z,997.89
2022-12-22T01:36:39.952Z,997.92
2022-12-22T01:37:39.918Z,997.86
2022-12-22T01:38:39.925Z,997.85
2022-12-22T01:39:39.900Z,997.81
2022-12-22T01:40:39.893Z,997.83
2022-12-22T01:41:39.941Z,997.85
2022-12-22T01:42:39.854Z,997.80
2022-12-22T01:43:39.887Z,997.79
2022-12-22T01:44:39.875Z,997.77
2022-12-22T01:45:39.878Z,997.80
2022-12-22T01:46:39.878Z,997.75
2022-12-22T01:47:39.786Z,997.73
2022-12-22T01:48:39.862Z,997.69
2022-12-22T01:49:39.780Z,997.75
2022-12-22T01:50:39.765Z,997.74
2022-12-22T01:51:39.875Z,997.71
2022-12-22T01:52:39.752Z,997.62
2022-12-22T01:53:39.769Z,997.65
2022-12-22T01:54:39.707Z,997.64
2022-12-22T01:55:39.769Z,997.64
2022-12-22T01:56:39.714Z,997.66
2022-12-22T01:57:39.695Z,997.63
2022-12-22T01:58:39.706Z,997.57
2022-12-22T01:59:39.753Z,997.59
2022-12-22T02:00:39.659Z,997.57
2022-12-22T02:01:39.708Z,997.55
2022-12-22T02:02:39.812Z,997.51
2022-12-22T02:03:39.724Z,997.46
2022-12-22T02:04:39.628Z,997.44
2022-12-22T02:05:39.651Z,997.42
2022-12-22T02:06:39.574Z,997.41
2022-12-22T02:07:39.591Z,997.38
2022-12-22T02:08:39.595Z,997.42
2022-12-22T02:09:39.598Z,997.36
2022-12-22T02:10:39.538Z,997.32
2022-12-22T02:11:39.553Z,997.37
2022-12-22T02:12:39.547Z,997.39
2022-12-22T02:13:39.529Z,997.34
2022-12-22T02:14:39.527Z,997.35
2022-12-22T02:15:39.573Z,997.28
2022-12-22T02:16:39.518Z,997.29
2022-12-22T02:17:39.492Z,997.25
2022-12-22T02:18:39.455Z,997.26
2022-12-22T02:19:39.466Z,997.25
2022-12-22T02:20:39.447Z,997.26
2022-12-22T02:21:39.435Z,997.22
2022-12-22T02:22:39.599Z,997.21
2022-12-22T02:23:39.394Z,997.16
2022-12-22T02:24:39.399Z,997.11
2022-12-22T02:25:39.405Z,997.14
2022-12-22T02:26:39.357Z,997.12
2022-12-22T02:27:39.376Z,997.09
2022-12-22T02:28:39.405Z,997.06
2022-12-22T02:29:39.330Z,997.04
2022-12-22T02:30:39.345Z,997.05
2022-12-22T02:31:39.398Z,997.05
2022-12-22T02:32:39.346Z,997.02
2022-12-22T02:33:39.341Z,997.00
2022-12-22T02:34:39.276Z,996.95
2022-12-22T02:35:39.286Z,996.94
2022-12-22T02:36:39.282Z,996.92
2022-12-22T02:37:39.283Z,996.89
2022-12-22T02:38:39.264Z,996.93
2022-12-22T02:39:39.239Z,996.87
2022-12-22T02:40:41.840Z,996.82
2022-12-22T02:41:39.209Z,996.79
2022-12-22T02:42:39.231Z,996.79
2022-12-22T02:43:39.160Z,996.75
2022-12-22T02:44:39.181Z,996.76
2022-12-22T02:45:39.137Z,996.77
2022-12-22T02:46:39.178Z,996.77
2022-12-22T02:47:39.137Z,996.72
2022-12-22T02:48:39.150Z,996.74
2022-12-22T02:49:39.121Z,996.69
2022-12-22T02:50:39.088Z,996.71
2022-12-22T02:51:45.648Z,996.66
2022-12-22T02:52:39.083Z,996.69
2022-12-22T02:53:39.128Z,996.66
2022-12-22T02:54:39.078Z,996.71
2022-12-22T02:55:39.042Z,996.69
2022-12-22T02:56:39.043Z,996.68
2022-12-22T02:57:39.011Z,996.68
2022-12-22T02:58:39.030Z,996.69
2022-12-22T03:00:35.895Z,996.68
2022-12-22T03:01:37.012Z,996.66
2022-12-22T03:02:37.147Z,996.66
2022-12-22T03:03:37.159Z,996.63
2022-12-22T03:04:36.849Z,996.57
2022-12-22T03:05:36.865Z,996.62
2022-12-22T03:06:36.836Z,996.52
2022-12-22T03:07:36.847Z,996.53
2022-12-22T03:08:36.876Z,996.49
2022-12-22T03:09:36.784Z,996.48
2022-12-22T03:10:36.806Z,996.46
2022-12-22T03:11:36.790Z,996.39
2022-12-22T03:12:36.789Z,996.43
2022-12-22T03:13:36.750Z,996.47
2022-12-22T03:14:36.739Z,996.44
2022-12-22T03:15:36.759Z,996.48
2022-12-22T03:16:36.785Z,996.45
2022-12-22T03:17:36.751Z,996.43
2022-12-22T03:18:36.705Z,996.46
2022-12-22T03:19:36.697Z,996.39
2022-12-22T03:20:36.666Z,996.40
2022-12-22T03:21:36.684Z,996.38
2022-12-22T03:22:36.683Z,996.32
2022-12-22T03:23:36.637Z,996.36
2022-12-22T03:24:36.691Z,996.31
2022-12-22T03:25:36.630Z,996.27
2022-12-22T03:26:36.607Z,996.26
2022-12-22T03:27:36.652Z,996.21
2022-12-22T03:28:36.641Z,996.17
2022-12-22T03:29:36.663Z,996.14
2022-12-22T03:30:36.590Z,996.11
2022-12-22T03:31:36.606Z,996.09
2022-12-22T03:32:36.549Z,996.03
2022-12-22T03:33:36.543Z,996.03
2022-12-22T03:34:36.528Z,996.05
2022-12-22T03:35:36.502Z,996.01
2022-12-22T03:36:36.504Z,995.96
2022-12-22T03:37:36.467Z,995.96
2022-12-22T03:38:36.475Z,995.96
2022-12-22T03:39:36.470Z,995.99
2022-12-22T03:40:36.477Z,996.00
2022-12-22T03:41:42.944Z,995.95
2022-12-22T03:42:36.431Z,995.87
2022-12-22T03:43:36.447Z,995.87
2022-12-22T03:44:36.423Z,995.83
2022-12-22T03:45:36.411Z,995.90
2022-12-22T03:46:36.421Z,995.95
2022-12-22T03:47:36.370Z,995.94
2022-12-22T03:48:36.381Z,995.88
2022-12-22T03:49:36.357Z,995.82
2022-12-22T03:50:36.381Z,995.78
2022-12-22T03:51:36.330Z,995.71
2022-12-22T03:52:36.336Z,995.72
2022-12-22T03:53:36.337Z,995.68
2022-12-22T03:54:36.387Z,995.68
2022-12-22T03:55:36.321Z,995.69
2022-12-22T03:56:36.296Z,995.73
2022-12-22T03:57:36.256Z,995.73
2022-12-22T03:58:36.256Z,995.74
2022-12-22T03:59:36.244Z,995.65
2022-12-22T04:00:36.234Z,995.62
2022-12-22T04:01:42.984Z,995.64
2022-12-22T04:02:36.446Z,995.67
2022-12-22T04:03:36.180Z,995.59
2022-12-22T04:04:36.171Z,995.58
2022-12-22T04:05:36.161Z,995.58
2022-12-22T04:06:36.200Z,995.55
2022-12-22T04:07:36.167Z,995.55
2022-12-22T04:08:36.181Z,995.50
2022-12-22T04:09:36.128Z,995.48
2022-12-22T04:10:36.118Z,995.44
2022-12-22T04:11:36.126Z,995.45
2022-12-22T04:12:36.094Z,995.45
2022-12-22T04:13:36.085Z,995.42
2022-12-22T04:14:36.110Z,995.41
2022-12-22T04:15:36.060Z,995.43
2022-12-22T04:16:36.186Z,995.45
2022-12-22T04:17:36.044Z,995.46
2022-12-22T04:18:36.063Z,995.39
2022-12-22T04:19:36.020Z,995.37
2022-12-22T04:20:36.007Z,995.41
2022-12-22T04:21:42.533Z,995.38
2022-12-22T04:22:35.984Z,995.35
2022-12-22T04:23:35.947Z,995.35
2022-12-22T04:24:35.970Z,995.38
2022-12-22T04:25:35.956Z,995.32
2022-12-22T04:26:35.998Z,995.23
2022-12-22T04:27:35.940Z,995.26
2022-12-22T04:28:35.981Z,995.22
2022-12-22T04:29:35.902Z,995.23
2022-12-22T04:30:35.888Z,995.22
2022-12-22T04:31:35.910Z,995.22
2022-12-22T04:32:35.871Z,995.19
2022-12-22T04:33:35.839Z,995.17
2022-12-22T04:34:35.839Z,995.12
2022-12-22T04:35:35.826Z,995.11
2022-12-22T04:36:35.835Z,995.09
2022-12-22T04:37:35.821Z,995.07
2022-12-22T04:38:35.810Z,995.01
2022-12-22T04:39:35.778Z,995.02
2022-12-22T04:40:35.796Z,994.98
2022-12-22T04:41:35.789Z,994.94
2022-12-22T04:42:35.744Z,994.93
2022-12-22T04:43:35.757Z,994.91
2022-12-22T04:44:35.725Z,994.88
2022-12-22T04:45:35.781Z,994.80
2022-12-22T04:46:35.718Z,994.81
2022-12-22T04:47:35.725Z,994.85
2022-12-22T04:48:35.682Z,994.83
2022-12-22T04:49:35.679Z,994.84
2022-12-22T04:50:35.687Z,994.76
2022-12-22T04:51:35.670Z,994.75
2022-12-22T04:52:35.642Z,994.71
2022-12-22T04:53:35.647Z,994.70
2022-12-22T04:54:35.634Z,994.69
2022-12-22T04:55:35.602Z,994.66
2022-12-22T04:56:35.601Z,994.64
2022-12-22T04:57:40.488Z,994.63
2022-12-22T04:58:35.589Z,994.65
2022-12-22T04:59:35.590Z,994.63
2022-12-22T05:00:35.556Z,994.56
2022-12-22T05:01:35.779Z,994.53
2022-12-22T05:02:35.664Z,994.51
2022-12-22T05:03:35.588Z,994.51
2022-12-22T05:04:35.517Z,994.52
2022-12-22T05:05:35.522Z,994.43
2022-12-22T05:06:35.528Z,994.44
2022-12-22T05:07:35.493Z,994.45
2022-12-22T05:08:35.453Z,994.47
2022-12-22T05:09:35.481Z,994.43
2022-12-22T05:10:35.430Z,994.44
2022-12-22T05:11:35.476Z,994.42
2022-12-22T05:12:35.425Z,994.43
2022-12-22T05:13:35.440Z,994.42
2022-12-22T05:14:35.401Z,994.43
2022-12-22T05:15:35.392Z,994.38
2022-12-22T05:16:35.437Z,994.40
2022-12-22T05:17:35.372Z,994.41
2022-12-22T05:18:35.368Z,994.39
2022-12-22T05:19:35.363Z,994.36
2022-12-22T05:20:35.346Z,994.27
2022-12-22T05:21:35.341Z,994.29
2022-12-22T05:22:35.310Z,994.25
2022-12-22T05:23:35.332Z,994.21
2022-12-22T05:24:35.307Z,994.22
2022-12-22T05:25:35.771Z,994.19
2022-12-22T05:26:35.278Z,994.15
2022-12-22T05:27:35.979Z,994.13
2022-12-22T05:28:35.529Z,994.18
2022-12-22T05:29:35.233Z,994.19
2022-12-22T05:30:35.326Z,994.16
2022-12-22T05:31:35.199Z,994.13
2022-12-22T05:32:35.184Z,994.15
2022-12-22T05:33:35.203Z,994.11
2022-12-22T05:34:35.200Z,994.11
2022-12-22T05:35:35.148Z,994.09
2022-12-22T05:36:35.167Z,994.11
2022-12-22T05:37:35.149Z,994.08
2022-12-22T05:38:35.153Z,994.08
2022-12-22T05:39:35.123Z,994.09
2022-12-22T05:40:35.122Z,994.07
2022-12-22T05:41:41.625Z,994.08
2022-12-22T05:42:35.096Z,994.08
2022-12-22T05:43:35.074Z,994.07
2022-12-22T05:44:35.089Z,994.05
2022-12-22T05:45:35.055Z,994.08
2022-12-22T05:46:35.094Z,994.04
2022-12-22T05:47:35.016Z,994.08
2022-12-22T05:48:38.580Z,994.05
2022-12-22T05:49:35.023Z,994.06
2022-12-22T05:50:34.997Z,994.03
2022-12-22T05:51:34.994Z,994.07
2022-12-22T05:52:34.989Z,994.08
2022-12-22T05:53:34.949Z,994.17
2022-12-22T05:54:34.955Z,994.18
2022-12-22T05:55:34.957Z,994.21
2022-12-22T05:56:34.937Z,994.18
2022-12-22T05:57:35.085Z,994.38
2022-12-22T05:58:34.918Z,994.75
2022-12-22T05:59:34.951Z,994.71
2022-12-22T06:00:37.262Z,994.63
2022-12-22T06:02:45.681Z,994.59
2022-12-22T06:03:46.692Z,994.51
2022-12-22T06:04:46.509Z,994.49
2022-12-22T06:05:46.560Z,994.43
2022-12-22T06:06:46.503Z,994.47
2022-12-22T06:07:46.561Z,994.53
2022-12-22T06:08:46.477Z,994.50
2022-12-22T06:09:46.470Z,994.52
2022-12-22T06:10:46.502Z,994.55
2022-12-22T06:11:46.466Z,994.56
2022-12-22T06:12:46.456Z,994.49
2022-12-22T06:13:46.456Z,994.49
2022-12-22T06:14:46.401Z,994.50
2022-12-22T06:15:46.419Z,994.50
2022-12-22T06:16:46.378Z,994.51
2022-12-22T06:17:46.407Z,994.51
2022-12-22T06:18:46.397Z,994.54
2022-12-22T06:19:46.372Z,994.53
2022-12-22T06:20:46.360Z,994.54
2022-12-22T06:21:46.344Z,994.52
2022-12-22T06:22:46.323Z,994.60
2022-12-22T06:23:46.336Z,994.57
2022-12-22T06:24:46.333Z,994.54
2022-12-22T06:25:46.334Z,994.53
2022-12-22T06:26:46.308Z,994.55
2022-12-22T06:27:46.262Z,994.51
2022-12-22T06:28:46.258Z,994.52
2022-12-22T06:29:46.308Z,994.57
2022-12-22T06:30:46.350Z,994.69
2022-12-22T06:31:53.297Z,994.64
2022-12-22T06:32:46.228Z,994.57
2022-12-22T06:33:46.212Z,994.53
2022-12-22T06:34:46.199Z,994.56
2022-12-22T06:35:50.739Z,994.60
2022-12-22T06:36:46.191Z,994.52
2022-12-22T06:37:46.162Z,994.48
2022-12-22T06:38:47.085Z,994.53
2022-12-22T06:39:46.144Z,994.65
2022-12-22T06:40:48.075Z,994.64
2022-12-22T06:41:46.131Z,994.64
2022-12-22T06:42:46.119Z,994.57
2022-12-22T06:43:46.140Z,994.50
2022-12-22T06:44:47.309Z,994.61
2022-12-22T06:45:46.092Z,994.68
2022-12-22T06:46:47.224Z,994.64
2022-12-22T06:47:46.067Z,994.61
2022-12-22T06:48:46.249Z,994.47
2022-12-22T06:49:46.044Z,994.44
2022-12-22T06:50:46.027Z,994.69
2022-12-22T06:51:52.618Z,994.78
2022-12-22T06:52:45.991Z,994.76
2022-12-22T06:53:45.983Z,994.75
2022-12-22T06:54:45.969Z,994.71
2022-12-22T06:55:45.998Z,994.78
2022-12-22T06:56:45.967Z,994.85
2022-12-22T06:57:45.967Z,994.94
2022-12-22T06:58:45.925Z,994.97
2022-12-22T06:59:45.940Z,995.01
2022-12-22T07:00:45.970Z,995.01
2022-12-22T07:01:46.057Z,994.99
2022-12-22T07:02:46.057Z,995.00
2022-12-22T07:03:46.150Z,994.98
2022-12-22T07:04:45.852Z,994.97
2022-12-22T07:05:45.883Z,994.95
2022-12-22T07:06:45.850Z,995.02
2022-12-22T07:07:45.848Z,995.01
2022-12-22T07:08:45.811Z,995.07
2022-12-22T07:09:45.812Z,995.08
2022-12-22T07:10:45.811Z,995.15
2022-12-22T07:11:45.812Z,995.17
2022-12-22T07:12:45.781Z,995.20
2022-12-22T07:13:45.765Z,995.25
2022-12-22T07:14:45.762Z,995.26
2022-12-22T07:15:45.817Z,995.32
2022-12-22T07:16:45.806Z,995.32
2022-12-22T07:17:45.719Z,995.36
2022-12-22T07:18:45.705Z,995.39
2022-12-22T07:19:45.728Z,995.42
2022-12-22T07:20:45.692Z,995.44
2022-12-22T07:21:45.679Z,995.45
2022-12-22T07:22:45.689Z,995.44
2022-12-22T07:23:45.680Z,995.47
2022-12-22T07:24:45.639Z,995.48
2022-12-22T07:25:45.634Z,995.52
2022-12-22T07:26:45.643Z,995.58
2022-12-22T07:27:45.618Z,995.56
2022-12-22T07:28:45.812Z,995.62
2022-12-22T07:29:45.788Z,995.63
2022-12-22T07:30:45.582Z,995.63
2022-12-22T07:31:45.909Z,995.65
2022-12-22T07:32:45.569Z,995.73
2022-12-22T07:33:45.535Z,995.76
2022-12-22T07:34:45.532Z,995.75
2022-12-22T07:35:45.542Z,995.77
2022-12-22T07:36:45.538Z,995.73
2022-12-22T07:37:46.129Z,995.78
2022-12-22T07:38:48.008Z,995.84
2022-12-22T07:39:45.514Z,995.85
2022-12-22T07:40:51.035Z,995.88
2022-12-22T07:41:45.452Z,995.86
2022-12-22T07:42:45.454Z,995.93
2022-12-22T07:43:45.454Z,995.92
2022-12-22T07:44:45.419Z,995.94
2022-12-22T07:45:45.424Z,995.98
2022-12-22T07:46:45.520Z,996.00
2022-12-22T07:47:45.388Z,996.03
2022-12-22T07:48:45.396Z,996.09
2022-12-22T07:49:45.379Z,996.06
2022-12-22T07:50:45.350Z,996.07
2022-12-22T07:51:51.929Z,996.11
2022-12-22T07:52:45.360Z,996.13
2022-12-22T07:53:45.338Z,996.14
2022-12-22T07:54:45.334Z,996.14
2022-12-22T07:55:45.296Z,996.20
2022-12-22T07:56:45.513Z,996.17
2022-12-22T07:57:45.311Z,996.21
2022-12-22T07:58:45.289Z,996.21
2022-12-22T07:59:45.264Z,996.20
2022-12-22T08:00:45.260Z,996.25
2022-12-22T08:01:45.300Z,996.27
2022-12-22T08:02:45.453Z,996.31
2022-12-22T08:03:45.218Z,996.35
2022-12-22T08:04:45.292Z,996.29
2022-12-22T08:05:45.209Z,996.32
2022-12-22T08:06:45.216Z,996.35
2022-12-22T08:07:45.176Z,996.34
2022-12-22T08:08:45.164Z,996.36
2022-12-22T08:09:45.136Z,996.40
2022-12-22T08:10:45.156Z,996.40
2022-12-22T08:11:51.638Z,996.41
2022-12-22T08:12:45.156Z,996.47
2022-12-22T08:13:45.103Z,996.51
2022-12-22T08:14:45.098Z,996.48
2022-12-22T08:15:45.093Z,996.47
2022-12-22T08:16:45.180Z,996.45
2022-12-22T08:17:45.070Z,996.52
2022-12-22T08:18:45.079Z,996.58
2022-12-22T08:19:45.034Z,996.54
2022-12-22T08:20:45.072Z,996.58
2022-12-22T08:21:52.067Z,996.59
2022-12-22T08:22:45.048Z,996.56
2022-12-22T08:23:45.002Z,996.56
2022-12-22T08:24:44.978Z,996.63
2022-12-22T08:25:44.973Z,996.61
2022-12-22T08:26:44.976Z,996.59
2022-12-22T08:27:44.939Z,996.69
2022-12-22T08:28:44.950Z,996.67
2022-12-22T08:29:44.911Z,996.70
2022-12-22T08:30:44.936Z,996.74
2022-12-22T08:31:45.031Z,996.74
2022-12-22T08:32:44.905Z,996.74
2022-12-22T08:33:44.935Z,996.73
2022-12-22T08:34:44.875Z,996.76
2022-12-22T08:35:44.849Z,996.79
2022-12-22T08:36:44.838Z,996.82
2022-12-22T08:37:44.850Z,996.87
2022-12-22T08:38:44.847Z,996.88
2022-12-22T08:39:44.862Z,996.92
2022-12-22T08:40:44.851Z,997.02
2022-12-22T08:41:51.422Z,996.98
2022-12-22T08:42:44.806Z,997.03
2022-12-22T08:43:44.775Z,997.01
2022-12-22T08:44:44.782Z,997.07
2022-12-22T08:45:44.768Z,997.12
2022-12-22T08:46:44.816Z,997.13
2022-12-22T08:47:44.763Z,997.18
2022-12-22T08:48:44.715Z,997.21
2022-12-22T08:49:44.720Z,997.23
2022-12-22T08:50:44.731Z,997.19
2022-12-22T08:51:44.697Z,997.23
2022-12-22T08:52:44.668Z,997.22
2022-12-22T08:54:04.582Z,997.28
2022-12-22T08:54:44.684Z,997.30
2022-12-22T08:55:44.650Z,997.31
2022-12-22T08:56:44.841Z,997.26
2022-12-22T08:57:44.624Z,997.34
2022-12-22T08:58:44.609Z,997.37
2022-12-22T08:59:44.610Z,997.39
2022-12-22T09:00:44.632Z,997.45
2022-12-22T09:01:44.925Z,997.42
2022-12-22T09:02:44.847Z,997.47
2022-12-22T09:03:44.563Z,997.49
2022-12-22T09:05:33.586Z,997.51
2022-12-22T09:06:40.472Z,997.43
2022-12-22T09:07:34.538Z,997.45
2022-12-22T09:08:34.503Z,997.46
2022-12-22T09:09:34.597Z,997.45
2022-12-22T09:10:34.510Z,997.49
2022-12-22T09:12:32.019Z,997.54
2022-12-22T09:13:28.121Z,997.56
2022-12-22T09:14:28.952Z,997.56
2022-12-22T09:15:28.008Z,997.62
2022-12-22T09:16:28.026Z,997.55
2022-12-22T09:17:28.517Z,997.61
2022-12-22T09:18:28.013Z,997.67
2022-12-22T09:19:27.912Z,997.65
2022-12-22T09:20:27.909Z,997.74
2022-12-22T09:21:27.944Z,997.70
2022-12-22T09:22:28.643Z,997.73
2022-12-22T09:23:27.916Z,997.80
2022-12-22T09:24:27.863Z,997.78
2022-12-22T09:25:27.860Z,997.85
2022-12-22T09:26:27.956Z,997.82
2022-12-22T09:27:30.004Z,997.91
2022-12-22T09:28:27.820Z,997.98
2022-12-22T09:29:28.438Z,998.03
2022-12-22T09:30:30.294Z,998.15
2022-12-22T09:31:27.834Z,998.11
2022-12-22T09:32:27.966Z,998.18
2022-12-22T09:33:27.841Z,998.20
2022-12-22T09:34:28.460Z,998.19
2022-12-22T09:35:27.756Z,998.27
2022-12-22T09:36:27.789Z,998.25
2022-12-22T09:37:27.721Z,998.29
2022-12-22T09:38:27.698Z,998.34
2022-12-22T09:39:29.462Z,998.39
2022-12-22T09:40:27.696Z,998.42
2022-12-22T09:41:27.691Z,998.41
2022-12-22T09:42:27.677Z,998.51
2022-12-22T09:43:27.648Z,998.53
2022-12-22T09:44:27.684Z,998.59
2022-12-22T09:45:27.688Z,998.64
2022-12-22T09:46:27.749Z,998.64
2022-12-22T09:47:27.636Z,998.70
2022-12-22T09:48:27.841Z,998.77
2022-12-22T09:49:27.605Z,998.81
2022-12-22T09:50:27.563Z,998.81
2022-12-22T09:51:28.450Z,998.83
2022-12-22T09:52:27.570Z,998.90
2022-12-22T09:53:27.587Z,998.95
2022-12-22T09:54:27.531Z,998.97
2022-12-22T09:55:27.523Z,998.98
2022-12-22T09:56:27.517Z,999.01
2022-12-22T09:57:27.515Z,998.95
2022-12-22T09:58:27.482Z,998.99
2022-12-22T09:59:27.522Z,999.00
2022-12-22T10:00:33.998Z,998.99
2022-12-22T10:01:27.557Z,999.03
2022-12-22T10:02:27.547Z,999.04
2022-12-22T10:03:27.512Z,999.02
2022-12-22T10:04:27.413Z,999.03
2022-12-22T10:05:27.387Z,999.04
2022-12-22T10:06:27.398Z,999.06
2022-12-22T10:07:27.437Z,999.08
2022-12-22T10:08:27.387Z,999.10
2022-12-22T10:09:48.601Z,999.09
2022-12-22T10:10:27.360Z,999.10
2022-12-22T10:11:27.598Z,999.11
2022-12-22T10:12:27.350Z,999.13
2022-12-22T10:13:27.314Z,999.18
2022-12-22T10:14:27.323Z,999.17
2022-12-22T10:15:27.540Z,999.21
2022-12-22T10:16:27.373Z,999.19
2022-12-22T10:17:27.317Z,999.23
2022-12-22T10:18:27.276Z,999.23
2022-12-22T10:19:27.257Z,999.21
2022-12-22T10:20:27.233Z,999.23
2022-12-22T10:21:27.297Z,999.20
2022-12-22T10:22:34.778Z,999.18
2022-12-22T10:23:27.195Z,999.13
2022-12-22T10:24:27.199Z,999.21
2022-12-22T10:25:27.407Z,999.20
2022-12-22T10:26:29.098Z,999.16
2022-12-22T10:27:29.231Z,999.16
2022-12-22T10:28:27.151Z,999.18
2022-12-22T10:29:27.113Z,999.19
2022-12-22T10:30:27.139Z,999.22
2022-12-22T10:31:27.120Z,999.20
2022-12-22T10:32:27.196Z,999.24
2022-12-22T10:33:27.089Z,999.24
2022-12-22T10:34:27.070Z,999.23
2022-12-22T10:35:27.088Z,999.27
2022-12-22T10:36:27.168Z,999.27
2022-12-22T10:37:27.034Z,999.23
2022-12-22T10:38:27.109Z,999.23
2022-12-22T10:39:27.030Z,999.22
2022-12-22T10:40:26.997Z,999.25
2022-12-22T10:41:27.002Z,999.29
2022-12-22T10:42:26.996Z,999.36
2022-12-22T10:43:27.608Z,999.41
2022-12-22T10:44:26.973Z,999.48
2022-12-22T10:45:26.964Z,999.44
2022-12-22T10:46:27.016Z,999.50
2022-12-22T10:47:26.962Z,999.48
2022-12-22T10:48:27.120Z,999.52
2022-12-22T10:49:26.909Z,999.55
2022-12-22T10:50:26.927Z,999.61
2022-12-22T10:51:26.914Z,999.59
2022-12-22T10:52:30.584Z,999.59
2022-12-22T10:53:26.861Z,999.64
2022-12-22T10:54:26.888Z,999.59
2022-12-22T10:55:26.844Z,999.63
2022-12-22T10:56:26.848Z,999.63
2022-12-22T10:57:26.808Z,999.61
2022-12-22T10:58:26.841Z,999.65
2022-12-22T10:59:27.514Z,999.63
2022-12-22T11:00:26.788Z,999.73
2022-12-22T11:01:26.908Z,999.75
2022-12-22T11:02:27.021Z,999.81
2022-12-22T11:03:27.081Z,999.90
2022-12-22T11:04:26.748Z,999.94
2022-12-22T11:05:26.936Z,999.88
2022-12-22T11:06:26.700Z,999.91
2022-12-22T11:07:26.693Z,999.90
2022-12-22T11:08:26.684Z,999.97
2022-12-22T11:09:35.397Z,999.96
2022-12-22T11:10:27.509Z,1000.02
2022-12-22T11:11:26.658Z,1000.04
2022-12-22T11:12:34.260Z,1000.08
2022-12-22T11:13:26.637Z,1000.06
2022-12-22T11:14:26.608Z,1000.09
2022-12-22T11:15:26.613Z,1000.13
2022-12-22T11:16:26.645Z,1000.18
2022-12-22T11:17:26.572Z,1000.21
2022-12-22T11:18:26.569Z,1000.22
2022-12-22T11:19:26.564Z,1000.21
2022-12-22T11:20:27.529Z,1000.17
2022-12-22T11:21:26.575Z,1000.13
2022-12-22T11:22:26.514Z,1000.12
2022-12-22T11:23:26.544Z,1000.08
2022-12-22T11:24:26.497Z,1000.08
2022-12-22T11:25:26.519Z,1000.10
2022-12-22T11:26:26.473Z,1000.09
2022-12-22T11:27:26.473Z,1000.12
2022-12-22T11:28:26.511Z,1000.03
2022-12-22T11:29:27.358Z,1000.06
2022-12-22T11:30:32.449Z,999.98
2022-12-22T11:32:38.580Z,1000.00
2022-12-22T11:33:39.577Z,999.98
2022-12-22T11:34:39.548Z,1000.04
2022-12-22T11:35:39.536Z,1000.04
2022-12-22T11:36:39.530Z,1000.06
2022-12-22T11:37:39.528Z,1000.05
2022-12-22T11:38:39.510Z,1000.00
2022-12-22T11:39:39.590Z,1000.03
2022-12-22T11:40:39.472Z,1000.00
2022-12-22T11:41:39.502Z,1000.04
2022-12-22T11:42:39.448Z,999.95
2022-12-22T11:43:39.663Z,1000.00
2022-12-22T11:44:39.479Z,999.99
2022-12-22T11:45:43.312Z,1000.04
2022-12-22T11:46:39.441Z,999.98
2022-12-22T11:47:39.411Z,1000.08
2022-12-22T11:48:39.405Z,1000.06
2022-12-22T11:49:39.370Z,1000.11
2022-12-22T11:51:07.129Z,1000.07
2022-12-22T11:52:50.073Z,1000.16
2022-12-22T11:53:51.040Z,1000.12
2022-12-22T11:54:51.065Z,1000.13
2022-12-22T11:55:51.037Z,1000.14
2022-12-22T11:56:51.026Z,1000.16
2022-12-22T11:57:51.022Z,1000.23
2022-12-22T11:58:51.029Z,1000.32
2022-12-22T11:59:50.950Z,1000.34
2022-12-22T12:01:50.985Z,1000.38
2022-12-22T12:02:51.007Z,1000.37
2022-12-22T12:03:50.942Z,1000.48
2022-12-22T12:04:50.909Z,1000.41
2022-12-22T12:05:51.453Z,1000.44
2022-12-22T12:06:50.899Z,1000.41
2022-12-22T12:07:50.876Z,1000.57
2022-12-22T12:08:50.856Z,1000.62
2022-12-22T12:09:50.932Z,1000.52
2022-12-22T12:10:50.831Z,1000.62
2022-12-22T12:11:50.816Z,1000.69
2022-12-22T12:12:50.851Z,1000.67
2022-12-22T12:13:50.820Z,1000.71
2022-12-22T12:14:50.804Z,1000.71
2022-12-22T12:15:50.853Z,1000.71
2022-12-22T12:16:50.799Z,1000.77
2022-12-22T12:17:51.676Z,1000.73
2022-12-22T12:18:50.728Z,1000.72
2022-12-22T12:19:50.791Z,1000.75
2022-12-22T12:20:50.760Z,1000.77
2022-12-22T12:21:50.709Z,1000.81
2022-12-22T12:22:50.719Z,1000.81
2022-12-22T12:23:50.678Z,1000.83
2022-12-22T12:24:50.725Z,1000.82
2022-12-22T12:25:50.675Z,1000.88
2022-12-22T12:26:50.694Z,1000.84
2022-12-22T12:27:50.666Z,1000.82
2022-12-22T12:28:50.650Z,1000.90
2022-12-22T12:30:13.408Z,1000.80
2022-12-22T12:30:50.686Z,1000.89
2022-12-22T12:31:57.211Z,1000.89
2022-12-22T12:32:50.597Z,1000.92
2022-12-22T12:33:50.597Z,1000.97